Time;durP1;ratioP1;P1;durP2;ratioP2;P2;SDS_P1;SDS_P2;PMS_P1;PMS_P2;Temp;Humidity;BMP_temperature;BMP_pressure;BME280_temperature;BME280_humidity;BME280_pressure;Samples;Min_cycle;Max_cycle;Signal;HPM_P1;HPM_P2
2023/01/30 00:01:31;;;;;;;0.20;0.20;;;;;;;11.40;70.30;101634.66;4996372;28;20038;-65
2023/01/30 00:03:56;;;;;;;0.32;0.32;;;;;;;11.65;68.46;101637.50;4992356;28;20022;-65
2023/01/30 00:06:22;;;;;;;0.20;0.20;;;;;;;11.54;70.67;101648.13;4988885;28;20047;-65
2023/01/30 00:08:48;;;;;;;0.30;0.30;;;;;;;11.58;69.60;101638.56;4991777;28;20558;-64
2023/01/30 00:11:15;;;;;;;0.40;0.40;;;;;;;11.33;71.42;101644.63;4999775;28;20053;-67
2023/01/30 00:13:41;;;;;;;0.30;0.30;;;;;;;11.22;72.00;101633.69;5002319;28;20445;-65
2023/01/30 00:16:10;;;;;;;0.32;0.32;;;;;;;12.01;68.75;101627.00;5001746;28;20029;-65
2023/01/30 00:18:37;;;;;;;0.10;0.10;;;;;;;11.45;71.01;101615.22;5002306;28;20033;-62
2023/01/30 00:21:04;;;;;;;0.40;0.40;;;;;;;11.22;71.65;101607.59;5001806;28;20600;-66
2023/01/30 00:23:33;;;;;;;0.30;0.30;;;;;;;11.54;70.91;101619.31;4999140;28;20042;-65
2023/01/30 00:25:59;;;;;;;0.50;0.50;;;;;;;11.56;70.73;101619.13;5001636;28;20030;-66
2023/01/30 00:28:25;;;;;;;0.28;0.28;;;;;;;11.31;72.19;101597.44;5001714;28;20050;-65
2023/01/30 00:30:52;;;;;;;0.30;0.30;;;;;;;11.45;71.91;101607.97;5000043;28;20487;-66
2023/01/30 00:33:19;;;;;;;0.22;0.22;;;;;;;11.41;71.74;101589.75;5002403;28;20514;-63
2023/01/30 00:35:47;;;;;;;0.30;0.30;;;;;;;11.55;71.92;101574.38;5002118;28;20038;-63
2023/01/30 00:38:13;;;;;;;0.20;0.20;;;;;;;11.63;70.84;101541.84;5001218;28;20044;-64
2023/01/30 00:40:38;;;;;;;0.15;0.15;;;;;;;11.45;72.00;101535.31;5001086;28;20061;-65
2023/01/30 00:48:35;;;;;;;0.30;0.30;;;;;;;11.43;72.16;101523.09;5002909;28;20085;-63
2023/01/30 00:51:01;;;;;;;0.20;0.20;;;;;;;11.56;72.50;101528.41;5001904;28;20554;-63
2023/01/30 00:53:27;;;;;;;0.40;0.40;;;;;;;11.49;72.99;101522.22;5001219;28;20026;-66
2023/01/30 00:55:53;;;;;;;0.20;0.20;;;;;;;11.55;72.13;101517.84;5001052;28;20053;-65
2023/01/30 00:58:20;;;;;;;0.30;0.30;;;;;;;11.79;71.89;101507.19;5001036;28;20096;-65
2023/01/30 01:00:45;;;;;;;0.35;0.35;;;;;;;11.62;72.29;101497.09;5001339;28;20056;-64
2023/01/30 01:03:11;;;;;;;0.50;0.50;;;;;;;12.01;70.57;101494.22;5001087;28;20121;-64
2023/01/30 01:05:36;;;;;;;0.28;0.28;;;;;;;11.60;73.23;101483.88;5000780;28;20532;-64
2023/01/30 01:08:02;;;;;;;0.22;0.22;;;;;;;12.21;70.42;101478.69;4999656;28;20045;-63
2023/01/30 01:10:27;;;;;;;0.30;0.30;;;;;;;11.76;72.40;101480.69;4988989;28;20482;-65
2023/01/30 01:12:53;;;;;;;0.30;0.30;;;;;;;12.01;70.94;101488.81;4993696;28;20046;-63
2023/01/30 01:15:20;;;;;;;0.40;0.40;;;;;;;12.06;70.90;101470.13;4993362;28;20030;-65
2023/01/30 01:17:46;;;;;;;0.20;0.20;;;;;;;12.39;69.99;101462.56;4992996;28;20038;-62
2023/01/30 01:20:12;;;;;;;0.30;0.30;;;;;;;12.47;69.59;101467.69;4992987;28;20069;-64
2023/01/30 01:22:38;;;;;;;0.30;0.30;;;;;;;12.46;70.24;101449.03;4991868;28;20072;-67
2023/01/30 01:25:04;;;;;;;0.22;0.22;;;;;;;12.11;71.07;101460.31;4993393;28;20133;-64
2023/01/30 01:27:30;;;;;;;0.30;0.30;;;;;;;11.82;72.88;101458.28;4992935;28;20054;-64
2023/01/30 01:29:55;;;;;;;0.20;0.20;;;;;;;11.79;72.96;101456.03;4992805;28;20041;-64
2023/01/30 01:32:21;;;;;;;0.30;0.30;;;;;;;12.01;73.42;101467.28;4992941;28;20058;-64
2023/01/30 01:34:46;;;;;;;0.20;0.20;;;;;;;12.14;72.77;101472.53;4992882;28;20038;-64
2023/01/30 01:37:12;;;;;;;0.30;0.30;;;;;;;11.52;75.91;101476.88;4992735;28;20125;-64
2023/01/30 01:42:24;;;;;;;0.40;0.40;;;;;;;11.39;76.92;101474.25;4992900;28;20053;-65
2023/01/30 01:45:01;;;;;;;0.20;0.20;;;;;;;11.65;77.52;101467.06;4992882;28;20038;-67
2023/01/30 01:47:27;;;;;;;0.30;0.30;;;;;;;11.33;77.02;101461.66;4992742;28;20042;-64
2023/01/30 01:49:53;;;;;;;0.40;0.40;;;;;;;11.84;77.35;101466.13;4992555;28;20077;-66
2023/01/30 01:52:19;;;;;;;0.20;0.20;;;;;;;11.45;78.05;101472.56;4993110;28;20066;-67
2023/01/30 01:54:54;;;;;;;0.38;0.38;;;;;;;11.59;77.48;101459.84;4993383;28;20026;-64
2023/01/30 01:57:32;;;;;;;0.40;0.40;;;;;;;11.79;77.42;101461.44;4988505;28;20035;-66
2023/01/30 02:00:10;;;;;;;0.20;0.20;;;;;;;11.88;76.44;101446.63;4973105;28;20061;-64
2023/01/30 02:02:37;;;;;;;0.20;0.20;;;;;;;11.91;77.22;101446.19;4973378;28;20114;-64
2023/01/30 02:05:05;;;;;;;0.30;0.30;;;;;;;11.35;78.75;101464.13;4973009;28;20220;-66
2023/01/30 02:07:58;;;;;;;0.35;0.35;;;;;;;12.30;76.13;101445.06;4973218;28;20118;-65
2023/01/30 02:10:35;;;;;;;0.40;0.40;;;;;;;11.87;76.48;101433.41;4994416;28;22909;-66
2023/01/30 02:13:01;;;;;;;0.30;0.30;;;;;;;11.90;76.75;101438.34;5009551;28;20112;-66
2023/01/30 02:15:26;;;;;;;0.40;0.40;;;;;;;11.93;76.23;101432.53;5009210;28;20510;-64
2023/01/30 02:17:51;;;;;;;0.30;0.30;;;;;;;11.83;77.40;101437.56;5009376;28;20116;-66
2023/01/30 02:20:58;;;;;;;0.38;0.38;;;;;;;11.86;77.89;101445.19;5008967;28;20046;-63
2023/01/30 02:23:36;;;;;;;0.20;0.20;;;;;;;11.21;80.78;101439.16;4950927;29;20047;-66
2023/01/30 02:26:10;;;;;;;0.20;0.20;;;;;;;11.70;79.20;101438.47;4950728;29;20066;-65
2023/01/30 02:28:47;;;;;;;0.40;0.40;;;;;;;11.64;79.01;101423.16;4950564;29;20059;-63
2023/01/30 02:31:34;;;;;;;0.30;0.30;;;;;;;11.65;78.70;101429.38;4950806;29;20039;-65
2023/01/30 02:34:28;;;;;;;0.30;0.30;;;;;;;11.34;79.92;101431.00;4950742;28;20043;-66
2023/01/30 02:37:14;;;;;;;0.38;0.38;;;;;;;11.83;79.73;101432.19;4950975;29;20051;-64
2023/01/30 02:39:52;;;;;;;0.40;0.40;;;;;;;12.01;76.83;101434.94;4950768;29;20392;-65
2023/01/30 02:42:28;;;;;;;0.30;0.30;;;;;;;12.10;77.22;101439.84;4947455;29;20528;-64
2023/01/30 02:45:16;;;;;;;0.30;0.30;;;;;;;11.98;77.70;101422.75;4933957;29;20126;-65
2023/01/30 02:48:03;;;;;;;0.40;0.40;;;;;;;12.29;76.86;101433.44;4922530;29;20050;-65
2023/01/30 02:50:41;;;;;;;0.30;0.30;;;;;;;12.43;75.84;101436.00;4950643;28;20554;-63
2023/01/30 02:53:07;;;;;;;0.35;0.35;;;;;;;11.77;78.33;101431.19;4952287;28;20051;-65
2023/01/30 02:55:32;;;;;;;0.50;0.50;;;;;;;12.08;76.34;101435.72;4971339;28;20030;-64
2023/01/30 02:57:59;;;;;;;0.40;0.40;;;;;;;11.40;80.01;101421.25;4972740;28;20038;-65
2023/01/30 03:00:27;;;;;;;0.30;0.30;;;;;;;11.74;78.83;101415.47;4972625;28;20045;-65
2023/01/30 03:03:24;;;;;;;0.30;0.30;;;;;;;11.94;77.53;101426.09;4972737;28;20056;-66
2023/01/30 03:06:13;;;;;;;0.20;0.20;;;;;;;12.22;76.26;101415.69;4972145;28;20047;-64
2023/01/30 03:08:55;;;;;;;0.32;0.32;;;;;;;12.17;77.61;101424.44;4983792;28;20459;-64
2023/01/30 03:11:28;;;;;;;0.38;0.38;;;;;;;12.60;74.99;101415.50;4991417;28;20039;-65
2023/01/30 03:14:15;;;;;;;0.47;0.47;;;;;;;11.90;78.77;101416.78;4991526;28;20046;-64
2023/01/30 03:16:41;;;;;;;0.50;0.50;;;;;;;11.46;79.44;101431.16;4991661;28;20030;-66
2023/01/30 03:19:11;;;;;;;0.30;0.30;;;;;;;11.63;79.34;101418.00;4991425;28;20034;-65
2023/01/30 03:21:43;;;;;;;0.30;0.30;;;;;;;11.78;79.49;101421.22;4992130;28;20018;-65
2023/01/30 03:24:10;;;;;;;0.43;0.43;;;;;;;12.15;76.34;101415.75;4991425;28;20050;-65
2023/01/30 03:26:59;;;;;;;0.40;0.40;;;;;;;12.09;77.33;101405.00;4990994;28;20042;-64
2023/01/30 03:29:24;;;;;;;0.40;0.40;;;;;;;12.60;73.77;101412.81;4991279;28;20558;-66
2023/01/30 03:31:50;;;;;;;0.30;0.30;;;;;;;12.08;76.72;101403.38;4991465;28;20072;-65
2023/01/30 03:34:15;;;;;;;0.40;0.40;;;;;;;12.12;76.46;101405.41;4991637;28;20038;-64
2023/01/30 03:36:40;;;;;;;0.30;0.30;;;;;;;12.06;76.36;101397.38;4992204;28;20110;-66
2023/01/30 03:39:06;;;;;;;0.40;0.40;;;;;;;12.43;75.68;101396.41;4983779;28;20411;-65
2023/01/30 03:41:31;;;;;;;0.20;0.20;;;;;;;12.08;76.35;101392.59;4982788;28;20038;-66
2023/01/30 03:43:57;;;;;;;0.20;0.20;;;;;;;12.62;74.82;101400.72;4985853;28;20487;-66
2023/01/30 03:46:22;;;;;;;0.35;0.35;;;;;;;12.42;74.23;101402.84;4974630;28;20459;-65
2023/01/30 03:48:47;;;;;;;0.28;0.28;;;;;;;12.10;75.29;101409.38;4986216;28;20025;-65
2023/01/30 03:51:13;;;;;;;0.40;0.40;;;;;;;12.56;73.48;101407.03;4975617;28;20039;-66
2023/01/30 03:53:38;;;;;;;0.15;0.15;;;;;;;12.40;74.60;101402.25;4975801;28;20054;-65
2023/01/30 03:56:04;;;;;;;0.20;0.20;;;;;;;12.26;74.31;101412.31;4975536;28;20034;-65
2023/01/30 03:58:29;;;;;;;0.40;0.40;;;;;;;12.47;74.43;101413.78;4975703;28;20039;-66
2023/01/30 04:00:56;;;;;;;0.30;0.30;;;;;;;12.79;72.64;101404.50;4976000;28;20042;-65
2023/01/30 04:03:22;;;;;;;0.40;0.40;;;;;;;12.16;74.77;101403.94;4975600;28;20063;-66
2023/01/30 04:05:47;;;;;;;0.30;0.30;;;;;;;12.57;73.32;101408.69;4975059;28;20047;-65
2023/01/30 04:08:13;;;;;;;0.30;0.30;;;;;;;12.19;75.12;101416.13;4975365;28;20106;-66
2023/01/30 04:10:38;;;;;;;0.30;0.30;;;;;;;12.33;74.49;101407.69;4982019;28;20030;-64
2023/01/30 04:13:03;;;;;;;0.40;0.40;;;;;;;12.30;73.79;101418.91;4995878;28;20038;-66
2023/01/30 04:15:29;;;;;;;0.30;0.30;;;;;;;12.32;74.38;101408.72;4994835;28;20030;-64
2023/01/30 04:17:54;;;;;;;0.30;0.30;;;;;;;12.72;72.54;101408.28;4994983;28;20375;-65
2023/01/30 04:20:20;;;;;;;0.30;0.30;;;;;;;12.77;72.31;101398.50;4994484;28;20035;-65
2023/01/30 04:22:45;;;;;;;0.30;0.30;;;;;;;12.68;71.88;101401.69;4994803;28;20030;-65
2023/01/30 04:25:10;;;;;;;0.30;0.30;;;;;;;12.80;70.50;101395.34;4994744;28;20077;-64
2023/01/30 04:27:36;;;;;;;0.40;0.40;;;;;;;12.99;70.74;101401.56;4995042;28;20030;-65
2023/01/30 04:30:02;;;;;;;0.30;0.30;;;;;;;13.16;69.30;101392.63;4994632;28;20045;-66
2023/01/30 04:32:27;;;;;;;0.30;0.30;;;;;;;12.87;71.21;101400.66;4994518;28;20073;-64
2023/01/30 04:34:53;;;;;;;0.30;0.30;;;;;;;12.69;70.74;101392.56;4994394;28;20495;-65
2023/01/30 04:37:18;;;;;;;0.30;0.30;;;;;;;13.02;70.53;101393.81;4994586;28;20045;-66
2023/01/30 04:39:43;;;;;;;0.38;0.38;;;;;;;12.47;72.01;101394.91;4994993;28;20124;-65
2023/01/30 04:42:09;;;;;;;0.38;0.38;;;;;;;12.56;72.23;101392.75;4993995;28;20048;-65
2023/01/30 04:44:34;;;;;;;0.38;0.38;;;;;;;11.99;74.03;101392.06;4995063;28;20034;-64
2023/01/30 04:47:00;;;;;;;0.30;0.30;;;;;;;11.93;74.01;101395.63;4981454;28;20039;-66
2023/01/30 04:49:25;;;;;;;0.30;0.30;;;;;;;12.63;71.56;101396.19;4985853;28;20117;-67
2023/01/30 04:51:51;;;;;;;0.25;0.25;;;;;;;12.80;70.66;101398.03;4992817;28;20042;-65
2023/01/30 04:54:16;;;;;;;0.40;0.40;;;;;;;12.84;69.70;101390.31;4994186;28;20039;-65
2023/01/30 04:56:41;;;;;;;0.30;0.30;;;;;;;12.56;69.03;101398.94;4993645;28;20259;-64
2023/01/30 04:59:07;;;;;;;0.50;0.50;;;;;;;12.10;70.88;101415.59;4993744;28;20418;-65
2023/01/30 05:01:35;;;;;;;0.40;0.40;;;;;;;12.23;69.89;101396.59;4991411;28;20035;-65
2023/01/30 05:04:01;;;;;;;0.38;0.38;;;;;;;12.45;70.74;101407.78;4993861;28;20041;-65
2023/01/30 05:06:27;;;;;;;0.40;0.40;;;;;;;12.17;70.41;101412.81;4982029;28;20073;-64
2023/01/30 05:08:55;;;;;;;0.30;0.30;;;;;;;12.30;70.20;101393.84;4991231;28;20065;-67
2023/01/30 05:11:21;;;;;;;0.40;0.40;;;;;;;12.24;69.84;101400.13;4993327;28;20038;-64
2023/01/30 05:13:46;;;;;;;0.30;0.30;;;;;;;12.25;69.49;101399.88;4993046;28;20525;-66
2023/01/30 05:16:13;;;;;;;0.30;0.30;;;;;;;12.43;69.06;101395.56;4992779;28;20042;-66
2023/01/30 05:18:38;;;;;;;0.40;0.40;;;;;;;12.73;68.90;101404.56;4993659;28;20066;-65
2023/01/30 05:21:07;;;;;;;0.63;0.63;;;;;;;12.13;70.06;101393.59;4993411;28;20062;-65
2023/01/30 05:23:33;;;;;;;0.47;0.47;;;;;;;11.95;71.23;101401.63;4993446;28;20062;-65
2023/01/30 05:25:58;;;;;;;0.35;0.35;;;;;;;11.73;71.97;101404.91;4993242;28;20089;-64
2023/01/30 05:28:24;;;;;;;0.40;0.40;;;;;;;12.00;70.45;101409.88;4993232;28;20360;-65
2023/01/30 05:30:50;;;;;;;0.40;0.40;;;;;;;11.86;70.61;101415.56;4993802;28;20022;-65
2023/01/30 05:33:15;;;;;;;0.40;0.40;;;;;;;11.75;71.57;101410.91;4993290;28;20045;-66
2023/01/30 05:35:47;;;;;;;0.47;0.47;;;;;;;11.64;71.00;101425.84;4993377;28;20455;-65
2023/01/30 05:38:13;;;;;;;0.45;0.45;;;;;;;11.27;72.98;101426.72;4993282;28;20042;-66
2023/01/30 05:40:38;;;;;;;0.30;0.30;;;;;;;11.41;70.69;101418.38;4993204;28;20053;-65
2023/01/30 05:43:04;;;;;;;0.30;0.30;;;;;;;11.67;69.62;101411.19;4996707;28;20034;-64
2023/01/30 05:45:29;;;;;;;0.40;0.40;;;;;;;11.22;70.13;101421.16;4993345;28;20064;-65
2023/01/30 05:47:54;;;;;;;0.40;0.40;;;;;;;11.01;70.84;101419.59;4991730;28;20039;-65
2023/01/30 05:50:20;;;;;;;0.38;0.38;;;;;;;11.78;67.43;101430.13;4992842;28;20038;-65
2023/01/30 05:52:46;;;;;;;0.30;0.30;;;;;;;11.12;69.64;101435.09;4991743;28;20038;-65
2023/01/30 05:55:11;;;;;;;0.30;0.30;;;;;;;11.37;69.66;101427.91;4993117;28;20038;-66
2023/01/30 05:57:36;;;;;;;0.30;0.30;;;;;;;11.64;68.67;101436.63;4993117;28;20054;-65
2023/01/30 06:00:04;;;;;;;0.40;0.40;;;;;;;11.83;69.29;101432.19;4992807;28;20038;-65
2023/01/30 06:02:30;;;;;;;0.40;0.40;;;;;;;11.76;68.75;101423.31;4988279;28;20114;-65
2023/01/30 06:04:55;;;;;;;0.45;0.45;;;;;;;11.62;69.18;101425.25;4991975;28;20050;-64
2023/01/30 06:07:21;;;;;;;0.40;0.40;;;;;;;11.60;70.33;101419.25;4992050;28;20037;-66
2023/01/30 06:09:46;;;;;;;0.30;0.30;;;;;;;11.48;69.60;101432.59;4988899;28;20098;-64
2023/01/30 06:12:12;;;;;;;0.40;0.40;;;;;;;11.66;69.52;101449.91;4990605;28;20549;-65
2023/01/30 06:14:37;;;;;;;0.40;0.40;;;;;;;11.43;69.48;101453.13;4990300;28;20125;-64
2023/01/30 06:17:02;;;;;;;0.40;0.40;;;;;;;11.10;69.90;101447.09;4991922;28;20038;-64
2023/01/30 06:19:28;;;;;;;0.28;0.28;;;;;;;11.17;69.34;101442.50;4990178;28;20038;-66
2023/01/30 06:21:53;;;;;;;0.30;0.30;;;;;;;10.68;69.60;101450.31;4990944;28;20145;-66
2023/01/30 06:24:18;;;;;;;0.50;0.50;;;;;;;10.78;69.79;101438.09;4987911;28;20042;-66
2023/01/30 06:26:44;;;;;;;0.50;0.50;;;;;;;11.23;67.83;101437.09;4990206;28;20045;-65
2023/01/30 06:29:09;;;;;;;0.50;0.50;;;;;;;11.00;67.56;101441.34;4991609;28;20589;-66
2023/01/30 06:31:35;;;;;;;0.40;0.40;;;;;;;11.24;65.72;101441.41;4991812;28;20057;-66
2023/01/30 06:34:02;;;;;;;0.40;0.40;;;;;;;11.73;64.03;101451.53;4991955;28;20041;-66
2023/01/30 06:36:28;;;;;;;0.50;0.50;;;;;;;11.21;65.74;101451.78;4991420;28;20574;-66
2023/01/30 06:38:53;;;;;;;0.50;0.50;;;;;;;11.19;64.98;101448.47;4993131;28;20049;-64
2023/01/30 06:41:18;;;;;;;0.30;0.30;;;;;;;10.95;64.68;101438.44;4991279;28;20034;-65
2023/01/30 06:43:44;;;;;;;0.40;0.40;;;;;;;10.46;66.74;101447.06;4991118;28;20490;-65
2023/01/30 06:46:09;;;;;;;0.32;0.32;;;;;;;10.65;65.28;101462.34;4990152;28;20060;-65
2023/01/30 06:48:34;;;;;;;0.30;0.30;;;;;;;10.78;63.73;101461.47;4991357;28;20390;-68
2023/01/30 06:51:00;;;;;;;0.47;0.47;;;;;;;10.62;64.92;101462.75;4991193;28;20061;-64
2023/01/30 06:53:29;;;;;;;0.50;0.50;;;;;;;10.26;64.08;101467.78;4991404;28;20430;-66
2023/01/30 06:55:58;;;;;;;0.20;0.20;;;;;;;10.63;64.33;101477.03;4990812;28;20030;-64
2023/01/30 06:58:24;;;;;;;0.50;0.50;;;;;;;10.16;64.50;101472.72;4988440;28;20054;-65
2023/01/30 07:00:49;;;;;;;0.50;0.50;;;;;;;10.21;64.83;101472.94;4992192;28;20038;-65
2023/01/30 07:03:16;;;;;;;0.40;0.40;;;;;;;11.12;62.29;101469.22;4990857;28;20128;-65
2023/01/30 07:05:43;;;;;;;0.40;0.40;;;;;;;11.15;62.49;101472.28;4989827;28;20114;-66
2023/01/30 07:08:09;;;;;;;0.57;0.57;;;;;;;10.50;63.79;101489.44;4990235;28;20050;-65
2023/01/30 07:10:35;;;;;;;0.25;0.25;;;;;;;10.49;64.22;101484.28;4990272;28;20423;-64
2023/01/30 07:13:01;;;;;;;0.30;0.30;;;;;;;10.46;63.55;101498.13;4990472;28;20034;-65
2023/01/30 07:15:27;;;;;;;0.30;0.30;;;;;;;11.21;61.81;101476.00;4989887;28;20092;-66
2023/01/30 07:17:53;;;;;;;0.43;0.43;;;;;;;11.26;61.37;101484.25;4988232;28;20088;-66
2023/01/30 07:20:18;;;;;;;0.50;0.50;;;;;;;11.17;61.70;101478.28;4990368;28;20502;-66
2023/01/30 07:22:54;;;;;;;0.32;0.32;;;;;;;11.25;62.78;101486.13;4991326;28;20042;-65
2023/01/30 07:25:22;;;;;;;0.40;0.40;;;;;;;11.36;61.67;101504.28;4989020;28;20378;-65
2023/01/30 07:27:53;;;;;;;0.50;0.50;;;;;;;11.23;62.93;101488.19;4992004;28;20023;-67
2023/01/30 07:30:19;;;;;;;0.30;0.30;;;;;;;10.64;64.63;101482.19;4990772;28;20031;-66
2023/01/30 07:32:51;;;;;;;0.45;0.45;;;;;;;11.43;64.07;101483.56;4990463;28;20069;-67
2023/01/30 07:35:17;;;;;;;0.50;0.50;;;;;;;11.58;64.15;101480.56;4990256;28;20038;-66
2023/01/30 07:37:47;;;;;;;0.43;0.43;;;;;;;11.38;64.62;101472.59;4990649;28;20109;-68
2023/01/30 07:40:13;;;;;;;0.30;0.30;;;;;;;11.14;65.73;101485.97;4990455;28;20038;-65
2023/01/30 07:42:38;;;;;;;0.40;0.40;;;;;;;11.49;64.30;101487.25;4988173;28;20027;-66
2023/01/30 07:45:04;;;;;;;0.47;0.47;;;;;;;11.38;64.27;101498.66;4990521;28;20139;-65
2023/01/30 07:47:29;;;;;;;0.30;0.30;;;;;;;11.04;65.11;101493.66;4990276;28;20034;-66
2023/01/30 07:49:55;;;;;;;0.50;0.50;;;;;;;11.27;64.95;101502.88;4990206;28;20444;-65
2023/01/30 07:52:21;;;;;;;0.28;0.28;;;;;;;11.01;63.49;101519.09;4990206;28;20030;-65
2023/01/30 07:54:46;;;;;;;0.32;0.32;;;;;;;11.73;62.29;101507.22;4990876;28;20034;-66
2023/01/30 07:57:11;;;;;;;0.50;0.50;;;;;;;11.16;63.50;101506.22;4990114;28;20034;-65
2023/01/30 07:59:37;;;;;;;0.30;0.30;;;;;;;11.87;61.98;101516.88;4990216;28;20046;-65
2023/01/30 08:02:02;;;;;;;0.40;0.40;;;;;;;10.97;63.96;101509.81;4990249;28;20038;-66
2023/01/30 08:04:27;;;;;;;0.50;0.50;;;;;;;11.29;64.14;101516.94;4990398;28;20042;-66
2023/01/30 08:06:53;;;;;;;0.30;0.30;;;;;;;11.14;63.61;101520.94;4989343;28;20060;-68
2023/01/30 08:09:18;;;;;;;0.50;0.50;;;;;;;11.50;62.60;101519.31;4989269;28;20097;-65
2023/01/30 08:11:44;;;;;;;0.43;0.43;;;;;;;10.98;63.33;101530.28;4990158;28;20026;-66
2023/01/30 08:14:10;;;;;;;0.50;0.50;;;;;;;11.68;62.46;101513.25;4988435;28;20045;-65
2023/01/30 08:16:35;;;;;;;0.38;0.38;;;;;;;11.65;61.50;101512.84;4989800;28;20113;-65
2023/01/30 08:19:04;;;;;;;0.30;0.30;;;;;;;11.11;62.53;101522.19;4989310;28;20073;-66
2023/01/30 08:21:29;;;;;;;0.50;0.50;;;;;;;11.24;63.22;101524.00;4989852;28;20030;-67
2023/01/30 08:23:54;;;;;;;0.22;0.22;;;;;;;11.30;63.39;101528.53;4989523;28;20034;-64
2023/01/30 08:26:21;;;;;;;0.40;0.40;;;;;;;11.61;62.13;101528.59;4990283;28;20039;-67
2023/01/30 08:28:46;;;;;;;0.40;0.40;;;;;;;12.10;60.03;101530.59;4988924;28;20493;-67
2023/01/30 08:31:12;;;;;;;0.40;0.40;;;;;;;11.28;61.96;101533.31;4988640;28;20046;-65
2023/01/30 08:33:38;;;;;;;0.38;0.38;;;;;;;11.45;62.31;101529.09;4993611;28;20041;-66
2023/01/30 08:36:04;;;;;;;0.50;0.50;;;;;;;11.22;62.24;101542.22;4993503;28;20030;-66
2023/01/30 08:38:29;;;;;;;0.30;0.30;;;;;;;11.26;62.47;101546.16;4993868;28;20137;-67
2023/01/30 08:40:56;;;;;;;0.32;0.32;;;;;;;11.81;61.53;101542.00;4993481;28;20606;-65
2023/01/30 08:43:22;;;;;;;0.40;0.40;;;;;;;11.30;62.80;101558.94;4993792;28;20026;-66
2023/01/30 08:45:48;;;;;;;0.50;0.50;;;;;;;11.77;61.59;101552.38;4994240;28;20041;-65
2023/01/30 08:48:13;;;;;;;0.40;0.40;;;;;;;11.42;62.13;101569.88;4993285;28;20593;-65
2023/01/30 08:50:38;;;;;;;0.55;0.55;;;;;;;11.40;62.69;101556.63;4993036;28;20168;-64
2023/01/30 08:53:06;;;;;;;0.30;0.30;;;;;;;11.25;62.23;101568.69;4992560;28;20517;-65
2023/01/30 08:55:31;;;;;;;0.40;0.40;;;;;;;11.60;61.49;101558.41;4992597;28;20566;-65
2023/01/30 08:57:57;;;;;;;0.43;0.43;;;;;;;11.40;61.37;101563.88;4992688;28;20018;-66
2023/01/30 09:00:22;;;;;;;0.38;0.38;;;;;;;11.15;62.89;101554.84;4992380;28;20586;-64
2023/01/30 09:02:51;;;;;;;0.30;0.30;;;;;;;10.98;63.42;101557.19;4990079;28;20049;-66
2023/01/30 09:05:18;;;;;;;0.52;0.52;;;;;;;11.71;62.13;101566.69;4992174;28;20096;-66
2023/01/30 09:07:43;;;;;;;0.47;0.47;;;;;;;11.90;60.80;101556.84;4992427;28;20082;-65
2023/01/30 09:10:09;;;;;;;0.40;0.40;;;;;;;11.77;60.86;101556.91;4992751;28;20177;-66
2023/01/30 09:12:34;;;;;;;0.32;0.32;;;;;;;12.03;60.70;101565.66;4992553;28;20037;-65
2023/01/30 09:15:00;;;;;;;0.40;0.40;;;;;;;11.97;60.69;101573.81;4992125;28;20387;-66
2023/01/30 09:17:25;;;;;;;0.45;0.45;;;;;;;11.94;61.50;101569.66;4992223;28;20037;-67
2023/01/30 09:19:50;;;;;;;0.40;0.40;;;;;;;11.56;60.67;101576.03;4992078;28;20042;-66
2023/01/30 09:22:16;;;;;;;0.40;0.40;;;;;;;11.74;62.17;101558.16;4991804;28;20056;-64
2023/01/30 09:24:41;;;;;;;0.50;0.50;;;;;;;11.34;62.28;101557.47;4992681;28;20045;-66
2023/01/30 09:27:07;;;;;;;0.40;0.40;;;;;;;11.54;62.34;101561.97;4987877;28;20487;-66
2023/01/30 09:29:32;;;;;;;0.30;0.30;;;;;;;11.15;63.06;101558.38;4992454;28;20096;-64
2023/01/30 09:31:58;;;;;;;0.38;0.38;;;;;;;10.90;63.24;101578.09;4991935;28;20199;-66
2023/01/30 09:34:27;;;;;;;0.50;0.50;;;;;;;11.44;61.62;101570.47;4991732;28;20033;-64
2023/01/30 09:36:54;;;;;;;0.30;0.30;;;;;;;11.25;62.43;101576.75;4992689;28;20022;-66
2023/01/30 09:39:20;;;;;;;0.50;0.50;;;;;;;11.39;61.95;101581.06;4991664;28;20042;-66
2023/01/30 09:42:04;;;;;;;0.40;0.40;;;;;;;11.73;60.60;101578.06;4989194;28;20047;-67
2023/01/30 09:44:35;;;;;;;0.30;0.30;;;;;;;11.29;61.59;101580.69;4988515;28;20054;-66
2023/01/30 09:47:12;;;;;;;0.30;0.30;;;;;;;11.70;60.94;101585.72;4991622;28;20095;-65
2023/01/30 09:50:18;;;;;;;0.30;0.30;;;;;;;11.71;60.45;101582.00;4991265;28;20100;-66
2023/01/30 09:53:10;;;;;;;0.32;0.30;;;;;;;10.95;62.62;101583.66;4991428;28;20042;-64
2023/01/30 09:55:38;;;;;;;0.40;0.40;;;;;;;11.86;60.13;101593.31;4989876;28;20582;-65
2023/01/30 09:58:04;;;;;;;0.30;0.30;;;;;;;11.41;62.05;101587.06;4990305;28;20396;-65
2023/01/30 10:00:38;;;;;;;0.55;0.55;;;;;;;12.01;60.10;101586.59;4991240;28;20080;-64
2023/01/30 10:03:14;;;;;;;0.32;0.32;;;;;;;12.14;59.53;101591.09;4990984;28;20043;-65
2023/01/30 10:06:15;;;;;;;0.30;0.30;;;;;;;11.53;61.43;101601.53;4991006;28;20455;-66
2023/01/30 10:08:59;;;;;;;;;;;;;;;11.62;60.84;101584.06;4991177;28;20042;-65
2023/01/30 10:11:39;;;;;;;0.30;0.30;;;;;;;11.66;61.15;101587.19;4990919;28;20393;-66
2023/01/30 10:14:18;;;;;;;0.50;0.50;;;;;;;12.14;59.51;101580.31;4990838;28;20568;-65
2023/01/30 10:17:18;;;;;;;0.30;0.30;;;;;;;11.54;61.02;101586.19;4990687;28;20066;-65
2023/01/30 10:19:49;;;;;;;0.22;0.22;;;;;;;12.07;59.17;101572.25;4990563;28;20038;-65
2023/01/30 10:22:34;;;;;;;0.38;0.38;;;;;;;11.70;60.80;101588.41;4991309;28;20038;-66
2023/01/30 10:25:36;;;;;;;0.45;0.45;;;;;;;12.64;58.40;101586.59;4990681;28;20410;-66
2023/01/30 10:28:10;;;;;;;0.20;0.20;;;;;;;11.48;60.83;101615.59;4990179;28;20035;-68
2023/01/30 10:30:36;;;;;;;0.40;0.40;;;;;;;11.85;60.92;101599.75;4991287;28;20037;-66
2023/01/30 10:33:15;;;;;;;0.22;0.22;;;;;;;11.89;61.39;101612.56;4990927;28;20042;-66
2023/01/30 10:35:42;;;;;;;0.40;0.40;;;;;;;11.59;60.92;101594.44;4990480;28;20093;-66
2023/01/30 10:38:19;;;;;;;0.57;0.57;;;;;;;12.18;59.55;101616.56;4988254;28;20450;-65
2023/01/30 10:41:03;;;;;;;0.38;0.38;;;;;;;12.52;59.64;101605.31;4990599;28;20038;-66
2023/01/30 10:43:41;;;;;;;0.32;0.32;;;;;;;12.56;59.27;101620.00;4988246;28;20042;-66
2023/01/30 10:46:18;;;;;;;0.40;0.40;;;;;;;12.62;59.13;101616.44;4987966;28;20386;-67
2023/01/30 10:48:46;;;;;;;0.35;0.35;;;;;;;12.09;59.90;101624.06;4990479;28;20105;-67
2023/01/30 10:51:25;;;;;;;0.30;0.30;;;;;;;12.34;59.73;101624.94;4990392;28;20100;-66
2023/01/30 10:54:12;;;;;;;0.30;0.30;;;;;;;12.21;60.15;101632.28;4987796;28;20046;-66
2023/01/30 10:56:47;;;;;;;0.50;0.50;;;;;;;12.62;58.45;101637.22;4989338;28;20031;-66
2023/01/30 10:59:33;;;;;;;0.30;0.30;;;;;;;12.82;58.01;101619.81;4988192;28;20126;-67
2023/01/30 11:02:15;;;;;;;0.30;0.30;;;;;;;11.89;60.33;101614.44;4989657;28;20061;-66
2023/01/30 11:04:56;;;;;;;0.30;0.30;;;;;;;11.94;60.81;101614.63;4991044;28;20035;-64
2023/01/30 11:07:21;;;;;;;0.40;0.40;;;;;;;11.78;60.19;101629.41;4990880;28;20046;-66
2023/01/30 11:09:48;;;;;;;0.40;0.40;;;;;;;11.91;59.80;101634.72;4991533;28;20039;-66
2023/01/30 11:12:14;;;;;;;0.40;0.40;;;;;;;12.42;58.25;101623.03;4990783;28;20121;-65
2023/01/30 11:14:49;;;;;;;0.40;0.40;;;;;;;12.39;59.28;101629.69;4990841;28;20038;-65
2023/01/30 11:17:17;;;;;;;0.40;0.40;;;;;;;12.29;59.00;101622.09;4989284;28;20042;-66
2023/01/30 11:19:42;;;;;;;0.40;0.40;;;;;;;11.57;60.15;101631.53;4990517;28;20038;-65
2023/01/30 11:22:13;;;;;;;0.40;0.40;;;;;;;12.23;59.11;101632.88;4991453;28;20077;-65
2023/01/30 11:24:43;;;;;;;;;;;;;;;12.11;58.32;101648.09;4992625;28;20057;-65
2023/01/30 11:27:29;;;;;;;0.40;0.40;;;;;;;12.20;59.63;101636.03;4991047;28;20252;-65
2023/01/30 11:30:17;;;;;;;0.32;0.32;;;;;;;12.23;58.38;101646.38;4991035;28;20465;-66
2023/01/30 11:32:45;;;;;;;0.52;0.52;;;;;;;11.91;58.34;101637.41;4991194;28;20522;-65
2023/01/30 11:35:13;;;;;;;0.40;0.40;;;;;;;12.26;59.08;101644.06;4984790;28;20046;-65
2023/01/30 11:37:41;;;;;;;0.50;0.50;;;;;;;12.55;57.93;101658.81;4971616;28;20116;-65
2023/01/30 11:40:29;;;;;;;0.40;0.40;;;;;;;12.41;57.25;101653.72;4971584;28;20070;-65
2023/01/30 11:43:09;;;;;;;0.20;0.20;;;;;;;12.47;57.93;101653.69;4971775;28;20125;-65
2023/01/30 11:45:41;;;;;;;0.40;0.40;;;;;;;12.78;56.61;101656.34;4972053;28;20393;-64